Monroe County Airport
KBMG : now visible

Airfield :











YOU CAN JOIN US ON...

 
LOGIN :

Register | Disclaimer

   EN    FR    IT 

 









Legend :    VFR   Marginal VFR   IFR   Intensive IFR   Very Intensive IFR
Visi :
Ceiling :
>= 8 km
>= 3000ft
5 to 8 km
1000 to 3000 ft
1500m to 5 km
500 to 1000 ft
800 to 1500m
200 to 500 ft
< 800m
< 200 ft
Symbols :   Thunderstorms  Fog  Heavy snow  Heavy precipitations  Wind > 20 kt






- Airport Elevation : 846 ft
- IATA code : BMG


KBMG - Monroe County

CURRENT METAR :
  • 160857Z AUTO 00000KT 1/4SM +SN FZFG BKN007 BKN030 OVC036 M01/M01 A2961 RMK AO2 P0001 T10061011

EXPIRED METARs :
  • 160853Z AUTO 00000KT 1/2SM SN FZFG SCT009 BKN030 OVC036 M01/M02 A2961 RMK AO2 SLP033 P0002 60003 T10061017 53007
  • 160840Z AUTO 00000KT 2SM -SN BR SCT009 SCT030 OVC036 00/M02 A2961 RMK AO2 P0000 T00001017
  • 160805Z AUTO 00000KT 3SM -SN BR BKN009 OVC014 00/M01 A2961 RMK AO2 CIG 007V012 P0000 T00001011
  • 160753Z AUTO 00000KT 3SM -SN BR SCT008 OVC014 00/M01 A2960 RMK AO2 SNB17 SLP030 P0001 T00001011
  • 160744Z AUTO 13003KT 2SM -SN BR SCT009 OVC014 00/M02 A2960 RMK AO2 SNB17 P0001 T00001017
  • 160740Z AUTO 00000KT 1 1/2SM -SN BR OVC011 M01/M02 A2960 RMK AO2 SNB17 P0001 T10061017
  • 160724Z AUTO 00000KT 1 3/4SM -SN BR BKN009 OVC015 00/M02 A2960 RMK AO2 SNB17 CIG 006V010 P0000 T00001017
  • 160717Z AUTO 00000KT 5SM -SN BR OVC008 00/M02 A2960 RMK AO2 SNB17 CIG 006V011 P0000 T00001017
  • 160653Z AUTO 00000KT 10SM OVC012 00/M02 A2959 RMK AO2 SLP026 T00001017
  • 160634Z AUTO 00000KT 10SM BKN011 OVC026 M01/M02 A2959 RMK AO2 T10061022
  • 160605Z AUTO 20004KT 10SM SCT008 SCT012 OVC025 00/M02 A2959 RMK AO2 T00001017

TAF KBMG
Valid from the 16 at 08:00 until the 17 at 06:00 UTC


160755Z 1608/1706 15003KT 5SM -SHSN BR BKN016 OVC035
TEMPO 1608/1610 2SM -SN BR BKN009
FM161000 25003KT 3SM BR VCSH OVC007
FM161300 25005KT P6SM OVC008
FM162100 25010KT 2SM -SHSN BR OVC006 AMD LTD TO CLD VIS AND WIND TIL 161400
KZID FIR / North America



MET'MAP, your aeronautical weather chart ! - Copyright ORBIFLY December 2007 - Disclaimer

ORBIFLY MET'MAP TEAM :

Programming & Development : Alexandra Zaïnal
Concept & original design : Baudouin d'Aumeries
Assistance for programming : Marc-Olivier Méhu
Technical & hardware support : Manuel Goepfert

Contact : metmap@orbifly.com




SOURCES & CREDITS :

   NOAA       Earth
Advisory